Wetterdaten: Woche 27.02.17 - 05.03.17 (KW9)
Datum Zeit Temperatur Luftfeuchte Luftdruck Niederschlag Windrichtung Sonnenschein Solar Wind
27.02.2017 00:00 0,0 C 84 % 1014,7 hPa 0,0 l/m N 0,00 h 0 W/m 0,7 km/h (0 Bft)
27.02.2017 01:00 -0,5 C 87 % 1014,3 hPa 0,0 l/m N 0,00 h 0 W/m 0,0 km/h (0 Bft)
27.02.2017 02:00 -0,9 C 88 % 1013,8 hPa 0,0 l/m N 0,00 h 0 W/m 0,0 km/h (0 Bft)
27.02.2017 03:00 -1,3 C 89 % 1013,3 hPa 0,0 l/m N 0,00 h 0 W/m 0,0 km/h (0 Bft)
27.02.2017 04:00 -1,6 C 90 % 1012,8 hPa 0,0 l/m N 0,00 h 0 W/m 0,0 km/h (0 Bft)
27.02.2017 05:00 -2,1 C 91 % 1012,4 hPa 0,0 l/m N 0,00 h 0 W/m 0,0 km/h (0 Bft)
27.02.2017 06:00 -2,4 C 91 % 1012,0 hPa 0,0 l/m N 0,00 h 0 W/m 0,0 km/h (0 Bft)
27.02.2017 07:00 -2,8 C 92 % 1011,7 hPa 0,0 l/m N 0,00 h 15 W/m 0,0 km/h (0 Bft)
27.02.2017 08:00 -2,4 C 93 % 1011,2 hPa 0,0 l/m N 0,25 h 88 W/m 0,0 km/h (0 Bft)
27.02.2017 09:00 1,3 C 92 % 1010,4 hPa 0,0 l/m N 1,00 h 341 W/m 0,9 km/h (0 Bft)
27.02.2017 10:00 7,0 C 75 % 1009,5 hPa 0,0 l/m SW 0,92 h 490 W/m 4,7 km/h (1 Bft)
27.02.2017 11:00 10,5 C 58 % 1008,3 hPa 0,0 l/m S-SW 0,92 h 521 W/m 14,4 km/h (3 Bft)
27.02.2017 12:00 11,4 C 53 % 1007,0 hPa 0,0 l/m S-SW 0,83 h 407 W/m 12,8 km/h (3 Bft)
27.02.2017 13:00 12,5 C 50 % 1005,6 hPa 0,0 l/m S-SW 0,75 h 448 W/m 13,4 km/h (3 Bft)
27.02.2017 14:00 13,6 C 45 % 1004,7 hPa 0,0 l/m W-SW 1,00 h 450 W/m 17,0 km/h (3 Bft)
27.02.2017 15:00 14,2 C 43 % 1003,6 hPa 0,0 l/m W-SW 1,00 h 315 W/m 21,1 km/h (4 Bft)
27.02.2017 16:00 13,7 C 44 % 1002,6 hPa 0,0 l/m W-SW 0,67 h 142 W/m 18,9 km/h (3 Bft)
27.02.2017 17:00 12,0 C 50 % 1002,0 hPa 0,0 l/m SW 0,00 h 24 W/m 12,6 km/h (3 Bft)
27.02.2017 18:00 10,1 C 57 % 1001,8 hPa 0,0 l/m SW 0,00 h 5 W/m 10,1 km/h (2 Bft)
27.02.2017 19:00 8,3 C 64 % 1001,2 hPa 0,0 l/m SW 0,00 h 0 W/m 5,9 km/h (2 Bft)
27.02.2017 20:00 6,1 C 72 % 1000,6 hPa 0,0 l/m N 0,00 h 0 W/m 0,4 km/h (0 Bft)
27.02.2017 21:00 5,2 C 76 % 1000,2 hPa 0,0 l/m SW 0,00 h 0 W/m 6,6 km/h (2 Bft)
27.02.2017 22:00 7,2 C 68 % 1000,2 hPa 0,0 l/m SW 0,00 h 0 W/m 18,2 km/h (3 Bft)
27.02.2017 23:00 8,3 C 61 % 999,6 hPa 0,0 l/m SW 0,00 h 0 W/m 14,1 km/h (3 Bft)
28.02.2017 00:00 7,1 C 63 % 998,5 hPa 0,0 l/m SW 0,00 h 0 W/m 8,4 km/h (2 Bft)
28.02.2017 01:00 6,6 C 63 % 996,9 hPa 0,0 l/m SW 0,00 h 0 W/m 11,0 km/h (2 Bft)
28.02.2017 02:00 6,9 C 61 % 995,7 hPa 0,0 l/m S-SW 0,00 h 0 W/m 11,3 km/h (2 Bft)
28.02.2017 03:00 8,0 C 58 % 996,1 hPa 0,0 l/m W-NW 0,00 h 0 W/m 13,7 km/h (3 Bft)
28.02.2017 04:00 6,5 C 77 % 997,3 hPa 0,0 l/m NW 0,00 h 0 W/m 29,8 km/h (5 Bft)
28.02.2017 05:00 3,1 C 87 % 999,3 hPa 2,4 l/m W 0,00 h 0 W/m 20,6 km/h (4 Bft)
28.02.2017 06:00 1,6 C 92 % 1000,5 hPa 1,6 l/m W-SW 0,00 h 0 W/m 14,1 km/h (3 Bft)
28.02.2017 07:00 0,8 C 94 % 1000,7 hPa 0,0 l/m S-SW 0,00 h 7 W/m 14,8 km/h (3 Bft)
28.02.2017 08:00 0,5 C 95 % 1000,7 hPa 0,0 l/m S-SW 0,00 h 16 W/m 11,4 km/h (2 Bft)
28.02.2017 09:00 0,6 C 96 % 1000,3 hPa 0,4 l/m S-SW 0,00 h 37 W/m 15,2 km/h (3 Bft)
28.02.2017 10:00 0,8 C 97 % 999,3 hPa 1,0 l/m SW 0,00 h 80 W/m 18,8 km/h (3 Bft)
28.02.2017 11:00 1,5 C 98 % 998,0 hPa 1,0 l/m SW 0,08 h 203 W/m 15,8 km/h (3 Bft)
28.02.2017 12:00 3,0 C 98 % 996,6 hPa 0,0 l/m SW 0,08 h 243 W/m 10,3 km/h (2 Bft)
28.02.2017 13:00 4,6 C 95 % 994,9 hPa 0,0 l/m SW 0,00 h 213 W/m 9,9 km/h (2 Bft)
28.02.2017 14:00 5,1 C 91 % 994,0 hPa 0,0 l/m S-SW 0,00 h 167 W/m 10,8 km/h (2 Bft)
28.02.2017 15:00 5,3 C 90 % 993,3 hPa 0,0 l/m S-SW 0,00 h 122 W/m 7,8 km/h (2 Bft)
28.02.2017 16:00 5,1 C 91 % 994,7 hPa 1,4 l/m S-SW 0,00 h 20 W/m 19,3 km/h (3 Bft)
28.02.2017 17:00 3,4 C 91 % 996,1 hPa 0,2 l/m W-SW 0,00 h 10 W/m 34,6 km/h (5 Bft)
28.02.2017 18:00 3,2 C 92 % 997,8 hPa 0,0 l/m SW 0,00 h 0 W/m 22,1 km/h (4 Bft)
28.02.2017 19:00 3,2 C 92 % 998,4 hPa 0,0 l/m W-SW 0,00 h 0 W/m 23,1 km/h (4 Bft)
28.02.2017 20:00 3,6 C 89 % 998,8 hPa 0,0 l/m W-SW 0,00 h 0 W/m 20,0 km/h (4 Bft)
28.02.2017 21:00 3,6 C 88 % 999,2 hPa 0,0 l/m W-SW 0,00 h 0 W/m 27,0 km/h (4 Bft)
28.02.2017 22:00 3,5 C 86 % 1001,1 hPa 0,0 l/m W 0,00 h 0 W/m 25,9 km/h (4 Bft)
28.02.2017 23:00 3,1 C 87 % 1002,5 hPa 0,0 l/m W-SW 0,00 h 0 W/m 22,9 km/h (4 Bft)
01.03.2017 00:00 2,8 C 87 % 1003,4 hPa 0,0 l/m W-SW 0,00 h 0 W/m 22,1 km/h (4 Bft)
01.03.2017 01:00 2,6 C 87 % 1003,9 hPa 0,0 l/m W-SW 0,00 h 0 W/m 24,9 km/h (4 Bft)
01.03.2017 02:00 2,6 C 86 % 1004,1 hPa 0,0 l/m W-SW 0,00 h 0 W/m 24,7 km/h (4 Bft)
01.03.2017 03:00 2,2 C 85 % 1004,0 hPa 0,0 l/m W-SW 0,00 h 0 W/m 25,7 km/h (4 Bft)
01.03.2017 04:00 2,0 C 86 % 1004,3 hPa 0,0 l/m W-SW 0,00 h 0 W/m 28,2 km/h (4 Bft)
01.03.2017 05:00 2,2 C 85 % 1005,0 hPa 0,0 l/m W-SW 0,00 h 0 W/m 29,1 km/h (5 Bft)
01.03.2017 06:00 2,3 C 87 % 1005,8 hPa 0,0 l/m W-SW 0,00 h 0 W/m 30,2 km/h (5 Bft)
01.03.2017 07:00 2,3 C 89 % 1006,9 hPa 0,0 l/m W-SW 0,00 h 15 W/m 24,5 km/h (4 Bft)
01.03.2017 08:00 2,1 C 92 % 1007,8 hPa 0,0 l/m W-SW 0,33 h 131 W/m 20,8 km/h (4 Bft)
01.03.2017 09:00 2,8 C 91 % 1008,7 hPa 0,0 l/m SW 0,17 h 109 W/m 27,2 km/h (4 Bft)
01.03.2017 10:00 3,2 C 89 % 1009,0 hPa 0,0 l/m W-SW 0,00 h 131 W/m 27,9 km/h (4 Bft)
01.03.2017 11:00 4,1 C 84 % 1009,1 hPa 0,0 l/m W-SW 0,00 h 143 W/m 27,6 km/h (4 Bft)
01.03.2017 12:00 5,1 C 80 % 1009,2 hPa 0,0 l/m W-SW 0,17 h 279 W/m 31,6 km/h (5 Bft)
01.03.2017 13:00 5,4 C 78 % 1008,9 hPa 0,0 l/m W-SW 0,00 h 160 W/m 34,1 km/h (5 Bft)
01.03.2017 14:00 5,7 C 78 % 1008,8 hPa 0,0 l/m W-SW 0,00 h 175 W/m 34,1 km/h (5 Bft)
01.03.2017 15:00 5,9 C 78 % 1008,7 hPa 0,0 l/m W-SW 0,00 h 129 W/m 33,7 km/h (5 Bft)
01.03.2017 16:00 5,8 C 79 % 1008,8 hPa 0,0 l/m W-SW 0,00 h 89 W/m 31,8 km/h (5 Bft)
01.03.2017 17:00 5,7 C 78 % 1008,6 hPa 0,0 l/m W-SW 0,00 h 29 W/m 23,6 km/h (4 Bft)
01.03.2017 18:00 5,2 C 82 % 1008,6 hPa 0,0 l/m SW 0,00 h 0 W/m 19,6 km/h (3 Bft)
01.03.2017 19:00 4,8 C 86 % 1008,6 hPa 0,4 l/m SW 0,00 h 0 W/m 26,4 km/h (4 Bft)
01.03.2017 20:00 3,9 C 92 % 1008,1 hPa 0,0 l/m SW 0,00 h 0 W/m 27,4 km/h (4 Bft)
01.03.2017 21:00 3,8 C 94 % 1007,9 hPa 0,2 l/m W-SW 0,00 h 0 W/m 25,7 km/h (4 Bft)
01.03.2017 22:00 4,1 C 95 % 1007,8 hPa 0,2 l/m SW 0,00 h 0 W/m 23,6 km/h (4 Bft)
01.03.2017 23:00 4,5 C 95 % 1007,6 hPa 0,2 l/m SW 0,00 h 0 W/m 25,9 km/h (4 Bft)
02.03.2017 00:00 5,4 C 94 % 1007,6 hPa 0,4 l/m SW 0,00 h 0 W/m 35,7 km/h (5 Bft)
02.03.2017 01:00 5,8 C 93 % 1007,7 hPa 1,0 l/m W-SW 0,00 h 0 W/m 36,9 km/h (5 Bft)
02.03.2017 02:00 6,3 C 92 % 1007,7 hPa 0,0 l/m W-SW 0,00 h 0 W/m 40,5 km/h (6 Bft)
02.03.2017 03:00 6,7 C 90 % 1007,4 hPa 0,0 l/m W 0,00 h 0 W/m 38,6 km/h (5 Bft)
02.03.2017 04:00 6,7 C 90 % 1007,7 hPa 0,0 l/m W-SW 0,00 h 0 W/m 42,9 km/h (6 Bft)
02.03.2017 05:00 6,7 C 89 % 1008,0 hPa 0,0 l/m SW 0,00 h 0 W/m 43,6 km/h (6 Bft)
02.03.2017 06:00 6,8 C 89 % 1008,8 hPa 0,0 l/m W-SW 0,00 h 0 W/m 32,2 km/h (5 Bft)
02.03.2017 07:00 6,5 C 90 % 1010,3 hPa 1,6 l/m W 0,00 h 17 W/m 25,3 km/h (4 Bft)
02.03.2017 08:00 5,1 C 92 % 1011,7 hPa 0,6 l/m W 0,00 h 33 W/m 22,9 km/h (4 Bft)
02.03.2017 09:00 5,5 C 90 % 1012,9 hPa 0,0 l/m W 0,00 h 121 W/m 18,0 km/h (3 Bft)
02.03.2017 10:00 6,5 C 87 % 1014,1 hPa 0,0 l/m W-SW 0,58 h 389 W/m 20,1 km/h (4 Bft)
02.03.2017 11:00 8,1 C 72 % 1014,4 hPa 0,0 l/m W-SW 1,00 h 568 W/m 26,6 km/h (4 Bft)
02.03.2017 12:00 9,1 C 62 % 1014,9 hPa 0,0 l/m W 0,92 h 630 W/m 29,2 km/h (5 Bft)
02.03.2017 13:00 9,9 C 56 % 1014,7 hPa 0,0 l/m W-SW 1,00 h 552 W/m 28,8 km/h (5 Bft)
02.03.2017 14:00 9,9 C 53 % 1014,9 hPa 0,0 l/m W-SW 1,00 h 447 W/m 31,0 km/h (5 Bft)
02.03.2017 15:00 9,6 C 50 % 1015,1 hPa 0,0 l/m W-SW 1,00 h 333 W/m 28,4 km/h (4 Bft)
02.03.2017 16:00 9,1 C 47 % 1015,4 hPa 0,0 l/m W 0,92 h 173 W/m 24,7 km/h (4 Bft)
02.03.2017 17:00 8,0 C 47 % 1016,1 hPa 0,0 l/m W 0,08 h 32 W/m 19,0 km/h (3 Bft)
02.03.2017 18:00 6,4 C 50 % 1016,8 hPa 0,0 l/m W 0,00 h 5 W/m 14,8 km/h (3 Bft)
02.03.2017 19:00 5,4 C 51 % 1017,2 hPa 0,0 l/m W-SW 0,00 h 0 W/m 11,3 km/h (2 Bft)
02.03.2017 20:00 4,8 C 53 % 1017,6 hPa 0,0 l/m W-SW 0,00 h 0 W/m 4,0 km/h (1 Bft)
02.03.2017 21:00 3,2 C 62 % 1017,9 hPa 0,0 l/m N 0,00 h 0 W/m 0,0 km/h (0 Bft)
02.03.2017 22:00 1,8 C 68 % 1018,0 hPa 0,0 l/m N 0,00 h 0 W/m 0,0 km/h (0 Bft)
02.03.2017 23:00 0,7 C 73 % 1017,9 hPa 0,0 l/m N 0,00 h 0 W/m 0,0 km/h (0 Bft)
03.03.2017 00:00 -0,1 C 77 % 1017,6 hPa 0,0 l/m N 0,00 h 0 W/m 0,0 km/h (0 Bft)
03.03.2017 01:00 -0,9 C 80 % 1017,3 hPa 0,0 l/m N 0,00 h 0 W/m 0,0 km/h (0 Bft)
03.03.2017 02:00 -1,4 C 82 % 1016,8 hPa 0,0 l/m N 0,00 h 0 W/m 0,0 km/h (0 Bft)
03.03.2017 03:00 -1,5 C 85 % 1016,3 hPa 0,0 l/m N 0,00 h 0 W/m 0,0 km/h (0 Bft)
03.03.2017 04:00 -1,3 C 87 % 1015,8 hPa 0,0 l/m W-SW 0,00 h 0 W/m 2,4 km/h (1 Bft)
03.03.2017 05:00 -1,1 C 87 % 1014,9 hPa 0,0 l/m N 0,00 h 0 W/m 0,0 km/h (0 Bft)
03.03.2017 06:00 -0,9 C 87 % 1014,4 hPa 0,0 l/m N 0,00 h 5 W/m 0,0 km/h (0 Bft)
03.03.2017 07:00 -1,0 C 86 % 1013,8 hPa 0,0 l/m W-SW 0,57 h 39 W/m 2,0 km/h (1 Bft)
03.03.2017 08:00 0,6 C 84 % 1013,1 hPa 0,0 l/m N 0,75 h 143 W/m 0,0 km/h (0 Bft)
03.03.2017 09:00 2,6 C 73 % 1012,6 hPa 0,0 l/m N 0,17 h 184 W/m 0,0 km/h (0 Bft)
03.03.2017 10:00 4,8 C 63 % 1012,0 hPa 0,0 l/m N 1,00 h 305 W/m 0,5 km/h (0 Bft)
03.03.2017 11:00 6,9 C 58 % 1011,4 hPa 0,0 l/m W-SW 1,00 h 413 W/m 4,7 km/h (1 Bft)
03.03.2017 12:00 10,0 C 53 % 1010,6 hPa 0,0 l/m SW 1,00 h 612 W/m 2,3 km/h (1 Bft)
03.03.2017 13:00 12,5 C 47 % 1009,2 hPa 0,0 l/m N 1,00 h 520 W/m 2,4 km/h (1 Bft)
03.03.2017 14:00 13,7 C 41 % 1008,0 hPa 0,0 l/m S-SW 1,00 h 389 W/m 6,2 km/h (2 Bft)
03.03.2017 15:00 14,4 C 42 % 1007,1 hPa 0,0 l/m S-SW 0,83 h 285 W/m 11,7 km/h (2 Bft)
03.03.2017 16:00 13,6 C 48 % 1006,0 hPa 0,0 l/m S-SW 0,00 h 95 W/m 5,7 km/h (1 Bft)
03.03.2017 17:00 12,2 C 55 % 1004,9 hPa 0,0 l/m SO 0,00 h 29 W/m 3,9 km/h (1 Bft)
03.03.2017 18:00 9,4 C 67 % 1004,4 hPa 0,0 l/m N 0,00 h 0 W/m 0,7 km/h (0 Bft)
03.03.2017 19:00 7,5 C 76 % 1003,9 hPa 0,0 l/m N 0,00 h 0 W/m 0,9 km/h (0 Bft)
03.03.2017 20:00 6,3 C 81 % 1003,2 hPa 0,0 l/m SO 0,00 h 0 W/m 1,1 km/h (0 Bft)
03.03.2017 21:00 5,5 C 82 % 1002,7 hPa 0,0 l/m N 0,00 h 0 W/m 0,0 km/h (0 Bft)
03.03.2017 22:00 4,8 C 83 % 1002,2 hPa 0,0 l/m O-SO 0,00 h 0 W/m 2,7 km/h (1 Bft)
03.03.2017 23:00 4,1 C 84 % 1001,6 hPa 0,0 l/m N 0,00 h 0 W/m 0,0 km/h (0 Bft)
04.03.2017 00:00 3,4 C 85 % 1001,0 hPa 0,0 l/m N 0,00 h 0 W/m 0,0 km/h (0 Bft)
04.03.2017 01:00 2,8 C 88 % 1000,6 hPa 0,0 l/m N 0,00 h 0 W/m 0,0 km/h (0 Bft)
04.03.2017 02:00 2,3 C 88 % 999,7 hPa 0,0 l/m N 0,00 h 0 W/m 0,0 km/h (0 Bft)
04.03.2017 03:00 1,6 C 89 % 998,9 hPa 0,0 l/m N 0,00 h 0 W/m 0,4 km/h (0 Bft)
04.03.2017 04:00 1,0 C 90 % 998,2 hPa 0,0 l/m N 0,00 h 0 W/m 0,4 km/h (0 Bft)
04.03.2017 05:00 1,0 C 91 % 997,5 hPa 0,0 l/m N 0,00 h 0 W/m 0,0 km/h (0 Bft)
04.03.2017 06:00 0,9 C 91 % 997,0 hPa 0,0 l/m O-NO 0,00 h 5 W/m 2,9 km/h (1 Bft)
04.03.2017 07:00 0,3 C 91 % 996,8 hPa 0,0 l/m O-NO 0,17 h 36 W/m 1,6 km/h (1 Bft)
04.03.2017 08:00 2,1 C 92 % 996,0 hPa 0,0 l/m N 1,00 h 218 W/m 0,8 km/h (0 Bft)
04.03.2017 09:00 7,6 C 75 % 994,7 hPa 0,0 l/m N 1,00 h 377 W/m 0,3 km/h (0 Bft)
04.03.2017 10:00 13,2 C 56 % 993,7 hPa 0,0 l/m SO 0,58 h 363 W/m 6,9 km/h (2 Bft)
04.03.2017 11:00 14,3 C 46 % 992,8 hPa 0,0 l/m O-SO 0,25 h 280 W/m 11,1 km/h (2 Bft)
04.03.2017 12:00 14,3 C 49 % 991,2 hPa 0,0 l/m O 0,00 h 285 W/m 12,4 km/h (3 Bft)
04.03.2017 13:00 16,3 C 40 % 990,0 hPa 0,0 l/m SO 1,00 h 406 W/m 18,4 km/h (3 Bft)
04.03.2017 14:00 17,0 C 41 % 989,4 hPa 0,0 l/m O-SO 0,42 h 271 W/m 8,7 km/h (2 Bft)
04.03.2017 15:00 17,1 C 43 % 989,3 hPa 0,0 l/m SO 0,92 h 277 W/m 7,0 km/h (2 Bft)
04.03.2017 16:00 16,7 C 39 % 990,1 hPa 0,0 l/m SW 0,67 h 161 W/m 30,6 km/h (5 Bft)
04.03.2017 17:00 13,8 C 48 % 991,4 hPa 0,0 l/m SW 0,50 h 61 W/m 31,6 km/h (5 Bft)
04.03.2017 18:00 11,7 C 55 % 992,7 hPa 0,0 l/m SW 0,08 h 6 W/m 29,1 km/h (5 Bft)
04.03.2017 19:00 10,2 C 56 % 994,1 hPa 0,0 l/m SW 0,00 h 0 W/m 21,3 km/h (4 Bft)
04.03.2017 20:00 9,0 C 66 % 995,8 hPa 0,0 l/m W-SW 0,00 h 0 W/m 19,6 km/h (3 Bft)
04.03.2017 21:00 6,8 C 80 % 998,4 hPa 0,2 l/m W 0,00 h 0 W/m 33,1 km/h (5 Bft)
04.03.2017 22:00 5,4 C 87 % 999,7 hPa 0,0 l/m W-SW 0,00 h 0 W/m 26,5 km/h (4 Bft)
04.03.2017 23:00 5,2 C 86 % 1000,5 hPa 0,0 l/m W-SW 0,00 h 0 W/m 27,1 km/h (4 Bft)
05.03.2017 00:00 4,9 C 85 % 1001,4 hPa 0,0 l/m W-SW 0,00 h 0 W/m 17,3 km/h (3 Bft)
05.03.2017 01:00 4,9 C 83 % 1002,0 hPa 0,0 l/m W-SW 0,00 h 0 W/m 18,1 km/h (3 Bft)
05.03.2017 02:00 4,8 C 84 % 1002,6 hPa 0,0 l/m W-SW 0,00 h 0 W/m 17,2 km/h (3 Bft)
05.03.2017 03:00 4,7 C 85 % 1002,8 hPa 0,0 l/m SW 0,00 h 0 W/m 14,6 km/h (3 Bft)
05.03.2017 04:00 4,5 C 86 % 1003,5 hPa 0,0 l/m SW 0,00 h 0 W/m 12,2 km/h (2 Bft)
05.03.2017 05:00 4,2 C 87 % 1003,9 hPa 0,0 l/m SW 0,00 h 0 W/m 13,4 km/h (3 Bft)
05.03.2017 06:00 4,0 C 88 % 1004,5 hPa 0,0 l/m SW 0,00 h 0 W/m 17,0 km/h (3 Bft)
05.03.2017 07:00 4,1 C 88 % 1005,2 hPa 0,0 l/m SW 0,00 h 19 W/m 14,1 km/h (3 Bft)
05.03.2017 08:00 4,4 C 84 % 1005,7 hPa 0,0 l/m W-SW 0,00 h 88 W/m 17,0 km/h (3 Bft)
05.03.2017 09:00 5,3 C 81 % 1005,8 hPa 0,0 l/m SW 0,33 h 207 W/m 20,2 km/h (4 Bft)
05.03.2017 10:00 6,4 C 77 % 1005,3 hPa 0,0 l/m SW 0,58 h 397 W/m 22,8 km/h (4 Bft)
05.03.2017 11:00 7,5 C 70 % 1004,6 hPa 0,0 l/m W-SW 0,50 h 436 W/m 25,6 km/h (4 Bft)
05.03.2017 12:00 8,2 C 65 % 1003,8 hPa 0,0 l/m W-SW 0,42 h 441 W/m 27,6 km/h (4 Bft)
05.03.2017 13:00 9,0 C 58 % 1002,6 hPa 0,0 l/m W-SW 0,67 h 457 W/m 27,1 km/h (4 Bft)
05.03.2017 14:00 10,0 C 55 % 1001,6 hPa 0,0 l/m W-SW 0,92 h 453 W/m 22,1 km/h (4 Bft)
05.03.2017 15:00 10,0 C 56 % 1001,3 hPa 0,0 l/m W-SW 0,75 h 285 W/m 15,2 km/h (3 Bft)
05.03.2017 16:00 9,1 C 59 % 1001,1 hPa 0,0 l/m W-SW 0,00 h 98 W/m 9,5 km/h (2 Bft)
05.03.2017 17:00 8,5 C 62 % 1001,3 hPa 0,0 l/m W-SW 0,00 h 23 W/m 13,2 km/h (3 Bft)
05.03.2017 18:00 5,9 C 82 % 1002,5 hPa 1,6 l/m W 0,00 h 0 W/m 20,8 km/h (4 Bft)
05.03.2017 19:00 3,8 C 91 % 1003,1 hPa 1,4 l/m SW 0,00 h 0 W/m 22,6 km/h (4 Bft)
05.03.2017 20:00 3,8 C 93 % 1002,2 hPa 0,0 l/m W-SW 0,00 h 0 W/m 23,9 km/h (4 Bft)
05.03.2017 21:00 4,2 C 92 % 1001,9 hPa 0,0 l/m W-SW 0,00 h 0 W/m 25,2 km/h (4 Bft)
05.03.2017 22:00 4,0 C 92 % 1002,2 hPa 1,8 l/m W-SW 0,00 h 0 W/m 25,1 km/h (4 Bft)
05.03.2017 23:00 3,7 C 93 % 1002,8 hPa 0,8 l/m W-SW 0,00 h 0 W/m 29,6 km/h (5 Bft)
Min-Datum _ 27.02.17 03.03.17 04.03.17 - - - - 27.02.17
_ Min-Zeit 07:15 14:30 15:10 - - - - 00:00
Minimum _ -2,8 C 37 % 989,1 hPa - - - - 0,0 km/h (0 Bft)
Max-Datum _ 04.03.17 28.02.17 02.03.17 28.02.17 - 03.03.17 05.03.17 02.03.17
_ Max-Zeit 15:35 11:20 21:40 05:35 - 07:19 12:20 04:45
Maximum _ 17,6 C 98 % 1018,1 hPa 2,4 l/m - 0,15 h 773 W/m 61,2 km/h
W-SW (7 Bft)
Durchschnitt _ 5,5 C 77 % 1004,9 hPa #18,4 l/m W-SW #32:44 h 216 W/m 15,6 km/h (3 Bft)